createdAt,value
2022-08-17T00:00:34.857Z,87.49
2022-08-17T00:01:15.089Z,87.49
2022-08-17T00:02:25.291Z,87.60
2022-08-17T00:03:15.116Z,87.70
2022-08-17T00:04:14.095Z,87.80
2022-08-17T00:05:13.995Z,87.80
2022-08-17T00:06:13.964Z,87.90
2022-08-17T00:07:13.970Z,87.90
2022-08-17T00:08:13.984Z,87.90
2022-08-17T00:09:13.882Z,88.00
2022-08-17T00:10:14.884Z,88.00
2022-08-17T00:11:13.853Z,88.10
2022-08-17T00:12:43.565Z,88.45
2022-08-17T00:13:14.848Z,88.65
2022-08-17T00:14:13.896Z,88.75
2022-08-17T00:15:13.787Z,88.65
2022-08-17T00:16:13.937Z,88.65
2022-08-17T00:17:13.775Z,88.65
2022-08-17T00:19:04.175Z,88.65
2022-08-17T00:19:14.748Z,88.65
2022-08-17T00:20:13.749Z,88.65
2022-08-17T00:21:13.740Z,88.54
2022-08-17T00:22:34.647Z,88.65
2022-08-17T00:23:14.736Z,88.75
2022-08-17T00:24:14.550Z,88.85
2022-08-17T00:25:14.448Z,88.75
2022-08-17T00:26:14.312Z,88.85
2022-08-17T00:27:13.652Z,88.85
2022-08-17T00:28:13.650Z,89.15
2022-08-17T00:29:19.512Z,89.29
2022-08-17T00:30:14.589Z,89.29
2022-08-17T00:31:13.613Z,89.19
2022-08-17T00:33:15.478Z,89.39
2022-08-17T00:33:17.089Z,89.79
2022-08-17T00:34:13.554Z,89.70
2022-08-17T00:35:13.577Z,89.79
2022-08-17T00:36:13.519Z,89.70
2022-08-17T00:37:13.742Z,89.79
2022-08-17T00:38:13.525Z,89.70
2022-08-17T00:39:13.523Z,89.59
2022-08-17T00:40:13.543Z,89.50
2022-08-17T00:41:13.435Z,89.59
2022-08-17T00:42:14.357Z,89.70
2022-08-17T00:43:13.439Z,90.20
2022-08-17T00:44:13.509Z,90.10
2022-08-17T00:45:13.483Z,90.00
2022-08-17T00:46:13.405Z,90.41
2022-08-17T00:47:13.373Z,90.41
2022-08-17T00:48:29.681Z,90.41
2022-08-17T00:49:14.430Z,90.45
2022-08-17T00:50:13.381Z,90.55
2022-08-17T00:51:13.307Z,90.65
2022-08-17T00:52:13.315Z,90.75
2022-08-17T00:53:13.300Z,90.75
2022-08-17T00:54:13.309Z,90.65
2022-08-17T00:55:13.279Z,90.65
2022-08-17T00:56:13.253Z,91.15
2022-08-17T00:57:13.268Z,91.66
2022-08-17T00:58:13.274Z,91.66
2022-08-17T00:59:13.278Z,91.86
2022-08-17T01:00:13.311Z,92.06
2022-08-17T01:01:13.346Z,92.06
2022-08-17T01:02:14.195Z,92.06
2022-08-17T01:03:13.159Z,91.96
2022-08-17T01:04:13.144Z,92.06
2022-08-17T01:05:13.283Z,92.00
2022-08-17T01:06:13.112Z,91.80
2022-08-17T01:07:13.237Z,91.80
2022-08-17T01:08:13.098Z,91.80
2022-08-17T01:09:13.081Z,92.00
2022-08-17T01:10:58.229Z,92.00
2022-08-17T01:11:14.071Z,92.30
2022-08-17T01:12:13.053Z,92.50
2022-08-17T01:13:13.065Z,92.71
2022-08-17T01:14:13.014Z,92.61
2022-08-17T01:15:13.208Z,92.61
2022-08-17T01:16:13.020Z,92.71
2022-08-17T01:17:13.062Z,92.61
2022-08-17T01:18:12.947Z,92.81
2022-08-17T01:19:12.944Z,92.81
2022-08-17T01:20:13.132Z,92.91
2022-08-17T01:21:12.966Z,93.01
2022-08-17T01:22:12.999Z,93.21
2022-08-17T01:23:12.964Z,93.62
2022-08-17T01:24:13.935Z,93.62
2022-08-17T01:25:12.871Z,93.62
2022-08-17T01:26:12.878Z,93.62
2022-08-17T01:27:12.864Z,93.62
2022-08-17T01:28:12.847Z,93.66
2022-08-17T01:29:13.879Z,93.87
2022-08-17T01:30:56.548Z,94.12
2022-08-17T01:31:13.860Z,94.27
2022-08-17T01:32:12.800Z,94.23
2022-08-17T01:33:12.759Z,94.17
2022-08-17T01:34:12.804Z,94.17
2022-08-17T01:35:12.738Z,94.27
2022-08-17T01:36:12.748Z,94.27
2022-08-17T01:37:12.804Z,94.17
2022-08-17T01:38:12.693Z,94.07
2022-08-17T01:39:12.740Z,94.07
2022-08-17T01:40:12.747Z,94.07
2022-08-17T01:41:12.752Z,93.96
2022-08-17T01:42:12.655Z,93.96
2022-08-17T01:43:12.623Z,93.87
2022-08-17T01:44:12.644Z,93.87
2022-08-17T01:45:12.604Z,93.87
2022-08-17T01:46:12.617Z,93.87
2022-08-17T01:47:12.584Z,93.87
2022-08-17T01:48:12.656Z,93.96
2022-08-17T01:49:12.564Z,94.27
2022-08-17T01:50:12.581Z,94.17
2022-08-17T01:51:12.517Z,94.17
2022-08-17T01:52:12.528Z,94.17
2022-08-17T01:53:12.535Z,94.17
2022-08-17T01:54:12.507Z,94.17
2022-08-17T01:55:12.515Z,94.21
2022-08-17T01:56:12.474Z,94.51
2022-08-17T01:57:12.519Z,94.98
2022-08-17T01:58:12.500Z,94.98
2022-08-17T01:59:12.418Z,94.67
2022-08-17T02:00:12.463Z,94.51
2022-08-17T02:01:12.451Z,94.51
2022-08-17T02:02:12.394Z,94.21
2022-08-17T02:03:13.361Z,94.11
2022-08-17T02:04:12.343Z,94.11
2022-08-17T02:05:12.367Z,94.11
2022-08-17T02:06:27.640Z,94.21
2022-08-17T02:07:13.411Z,94.31
2022-08-17T02:08:18.429Z,94.51
2022-08-17T02:09:16.983Z,94.42
2022-08-17T02:10:20.099Z,94.31
2022-08-17T02:11:13.251Z,94.42
2022-08-17T02:12:37.802Z,94.51
2022-08-17T02:13:13.291Z,94.72
2022-08-17T02:14:12.287Z,94.72
2022-08-17T02:15:12.237Z,94.82
2022-08-17T02:16:12.191Z,95.02
2022-08-17T02:17:12.502Z,94.92
2022-08-17T02:18:12.203Z,94.92
2022-08-17T02:19:12.210Z,95.02
2022-08-17T02:20:12.166Z,95.07
2022-08-17T02:21:12.120Z,95.07
2022-08-17T02:22:12.122Z,95.07
2022-08-17T02:23:12.115Z,95.17
2022-08-17T02:24:12.091Z,95.27
2022-08-17T02:25:12.101Z,95.17
2022-08-17T02:26:12.088Z,95.17
2022-08-17T02:27:13.098Z,94.96
2022-08-17T02:28:12.043Z,94.96
2022-08-17T02:29:12.050Z,94.96
2022-08-17T02:31:00.646Z,94.76
2022-08-17T02:31:13.055Z,94.76
2022-08-17T02:32:12.020Z,94.86
2022-08-17T02:33:12.996Z,94.76
2022-08-17T02:34:12.004Z,94.76
2022-08-17T02:35:11.975Z,94.76
2022-08-17T02:36:12.023Z,94.76
2022-08-17T02:37:11.931Z,94.76
2022-08-17T02:38:11.899Z,94.76
2022-08-17T02:39:11.990Z,94.76
2022-08-17T02:40:11.988Z,94.86
2022-08-17T02:41:11.860Z,94.86
2022-08-17T02:42:11.840Z,94.86
2022-08-17T02:43:12.410Z,94.86
2022-08-17T02:44:12.175Z,95.07
2022-08-17T02:45:11.867Z,95.07
2022-08-17T02:46:11.792Z,95.17
2022-08-17T02:47:11.905Z,95.07
2022-08-17T02:48:11.832Z,94.96
2022-08-17T02:49:12.496Z,94.86
2022-08-17T02:50:11.764Z,94.86
2022-08-17T02:51:11.759Z,94.76
2022-08-17T02:52:11.713Z,94.76
2022-08-17T02:53:11.774Z,94.76
2022-08-17T02:54:40.183Z,94.66
2022-08-17T02:55:12.683Z,94.56
2022-08-17T02:56:11.777Z,94.56
2022-08-17T02:57:11.711Z,94.56
2022-08-17T02:58:11.635Z,94.60
2022-08-17T02:59:11.631Z,94.60
2022-08-17T03:00:11.669Z,94.60
2022-08-17T03:01:11.653Z,94.71
2022-08-17T03:02:11.673Z,94.81
2022-08-17T03:03:11.621Z,95.11
2022-08-17T03:04:11.565Z,95.11
2022-08-17T03:05:11.699Z,95.01
2022-08-17T03:06:11.528Z,95.01
2022-08-17T03:07:11.519Z,95.01
2022-08-17T03:08:13.035Z,95.01
2022-08-17T03:09:11.561Z,95.01
2022-08-17T03:10:11.559Z,95.01
2022-08-17T03:11:11.525Z,95.01
2022-08-17T03:12:11.463Z,95.01
2022-08-17T03:13:11.479Z,95.01
2022-08-17T03:14:12.563Z,94.91
2022-08-17T03:15:11.431Z,95.21
2022-08-17T03:16:11.400Z,95.31
2022-08-17T03:17:16.942Z,95.21
2022-08-17T03:18:19.191Z,95.31
2022-08-17T03:19:12.374Z,95.51
2022-08-17T03:20:11.364Z,95.51
2022-08-17T03:21:11.336Z,95.62
2022-08-17T03:22:36.599Z,95.51
2022-08-17T03:23:12.315Z,95.42
2022-08-17T03:24:11.290Z,95.42
2022-08-17T03:25:11.315Z,95.51
2022-08-17T03:26:12.296Z,95.51
2022-08-17T03:27:11.267Z,95.62
2022-08-17T03:28:11.257Z,95.51
2022-08-17T03:29:11.229Z,95.51
2022-08-17T03:30:11.226Z,95.42
2022-08-17T03:31:11.192Z,95.31
2022-08-17T03:32:11.191Z,95.21
2022-08-17T03:33:11.297Z,95.15
2022-08-17T03:34:11.200Z,95.26
2022-08-17T03:35:12.085Z,95.56
2022-08-17T03:36:11.162Z,95.86
2022-08-17T03:37:11.126Z,95.76
2022-08-17T03:38:11.198Z,95.76
2022-08-17T03:39:11.097Z,95.76
2022-08-17T03:40:11.440Z,95.86
2022-08-17T03:41:11.136Z,95.76
2022-08-17T03:42:31.596Z,95.66
2022-08-17T03:43:12.060Z,95.66
2022-08-17T03:44:11.067Z,96.07
2022-08-17T03:45:11.014Z,96.07
2022-08-17T03:46:34.422Z,96.17
2022-08-17T03:47:12.029Z,96.17
2022-08-17T03:48:11.009Z,96.17
2022-08-17T03:49:11.072Z,96.17
2022-08-17T03:50:10.942Z,96.27
2022-08-17T03:51:14.656Z,96.47
2022-08-17T03:52:11.080Z,96.78
2022-08-17T03:53:10.993Z,96.78
2022-08-17T03:54:10.906Z,96.78
2022-08-17T03:55:10.873Z,96.88
2022-08-17T03:56:10.962Z,96.88
2022-08-17T03:57:10.884Z,96.98
2022-08-17T03:58:10.873Z,96.98
2022-08-17T03:59:10.821Z,96.88
2022-08-17T04:00:12.004Z,96.88
2022-08-17T04:01:10.858Z,96.78
2022-08-17T04:02:10.836Z,96.67
2022-08-17T04:03:10.805Z,96.67
2022-08-17T04:04:10.795Z,96.67
2022-08-17T04:05:10.752Z,96.67
2022-08-17T04:06:10.752Z,96.78
2022-08-17T04:07:10.837Z,96.67
2022-08-17T04:08:10.766Z,96.78
2022-08-17T04:09:10.728Z,96.67
2022-08-17T04:10:10.768Z,96.78
2022-08-17T04:11:10.677Z,96.67
2022-08-17T04:12:10.677Z,96.57
2022-08-17T04:13:10.688Z,96.47
2022-08-17T04:14:10.696Z,96.27
2022-08-17T04:15:10.662Z,96.57
2022-08-17T04:16:10.613Z,96.78
2022-08-17T04:17:10.589Z,96.98
2022-08-17T04:18:11.051Z,96.98
2022-08-17T04:19:10.725Z,96.98
2022-08-17T04:20:10.551Z,96.88
2022-08-17T04:21:10.648Z,96.88
2022-08-17T04:22:10.554Z,96.88
2022-08-17T04:23:11.561Z,96.88
2022-08-17T04:24:10.540Z,96.67
2022-08-17T04:25:10.505Z,96.47
2022-08-17T04:26:10.481Z,96.42
2022-08-17T04:27:11.503Z,96.47
2022-08-17T04:28:15.825Z,96.37
2022-08-17T04:29:11.443Z,96.27
2022-08-17T04:30:10.423Z,96.17
2022-08-17T04:31:10.431Z,96.17
2022-08-17T04:32:10.395Z,95.97
2022-08-17T04:33:10.574Z,95.97
2022-08-17T04:34:10.374Z,95.97
2022-08-17T04:35:10.404Z,95.97
2022-08-17T04:36:10.363Z,95.97
2022-08-17T04:37:10.343Z,95.97
2022-08-17T04:38:10.470Z,95.97
2022-08-17T04:39:10.325Z,95.86
2022-08-17T04:40:10.466Z,95.76
2022-08-17T04:41:10.429Z,95.76
2022-08-17T04:42:10.267Z,95.62
2022-08-17T04:43:10.276Z,95.72
2022-08-17T04:44:10.487Z,95.62
2022-08-17T04:45:10.253Z,95.62
2022-08-17T04:46:10.281Z,95.51
2022-08-17T04:47:10.649Z,95.42
2022-08-17T04:48:10.207Z,95.31
2022-08-17T04:49:10.208Z,95.42
2022-08-17T04:50:10.158Z,95.37
2022-08-17T04:51:10.444Z,95.27
2022-08-17T04:52:10.200Z,95.27
2022-08-17T04:53:11.156Z,95.27
2022-08-17T04:54:10.196Z,95.27
2022-08-17T04:55:10.181Z,95.27
2022-08-17T04:56:11.629Z,95.07
2022-08-17T04:57:11.071Z,94.76
2022-08-17T04:58:10.071Z,94.62
2022-08-17T04:59:10.047Z,94.51
2022-08-17T05:00:10.019Z,94.42
2022-08-17T05:01:10.132Z,94.31
2022-08-17T05:02:10.005Z,94.31
2022-08-17T05:03:10.033Z,94.31
2022-08-17T05:04:33.234Z,94.31
2022-08-17T05:05:10.953Z,94.31
2022-08-17T05:06:09.940Z,94.42
2022-08-17T05:07:09.933Z,94.47
2022-08-17T05:08:09.905Z,94.47
2022-08-17T05:09:10.623Z,94.47
2022-08-17T05:10:09.886Z,94.37
2022-08-17T05:11:09.869Z,94.27
2022-08-17T05:12:09.867Z,94.27
2022-08-17T05:13:09.903Z,94.12
2022-08-17T05:14:09.876Z,94.02
2022-08-17T05:15:09.845Z,94.12
2022-08-17T05:16:10.057Z,94.02
2022-08-17T05:17:11.334Z,93.88
2022-08-17T05:18:09.800Z,93.88
2022-08-17T05:19:09.857Z,93.68
2022-08-17T05:20:09.886Z,93.37
2022-08-17T05:21:09.810Z,93.23
2022-08-17T05:22:09.730Z,93.02
2022-08-17T05:23:09.769Z,92.72
2022-08-17T05:24:13.540Z,92.62
2022-08-17T05:25:10.689Z,92.38
2022-08-17T05:26:10.333Z,92.27
2022-08-17T05:27:10.661Z,92.27
2022-08-17T05:28:10.659Z,92.18
2022-08-17T05:29:09.729Z,92.18
2022-08-17T05:30:09.667Z,92.07
2022-08-17T05:31:09.612Z,91.93
2022-08-17T05:32:38.418Z,92.03
2022-08-17T05:33:10.611Z,91.83
2022-08-17T05:34:09.671Z,91.73
2022-08-17T05:35:09.632Z,91.63
2022-08-17T05:36:09.611Z,91.58
2022-08-17T05:37:10.536Z,91.58
2022-08-17T05:38:09.511Z,91.58
2022-08-17T05:39:15.601Z,91.38
2022-08-17T05:40:10.583Z,91.38
2022-08-17T05:41:09.526Z,91.44
2022-08-17T05:42:09.540Z,91.44
2022-08-17T05:43:09.456Z,91.54
2022-08-17T05:44:09.502Z,91.34
2022-08-17T05:45:09.443Z,91.30
2022-08-17T05:46:09.434Z,91.19
2022-08-17T05:47:09.824Z,90.99
2022-08-17T05:48:09.515Z,89.28
2022-08-17T05:49:09.377Z,89.48
2022-08-17T05:50:09.997Z,89.44
2022-08-17T05:51:09.418Z,88.43
2022-08-17T05:52:09.345Z,88.43
2022-08-17T05:53:09.467Z,89.14
2022-08-17T05:54:09.409Z,88.49
2022-08-17T05:55:09.311Z,88.19
2022-08-17T05:56:22.360Z,87.69
2022-08-17T05:57:10.290Z,88.35
2022-08-17T05:58:09.328Z,88.45
2022-08-17T05:59:09.284Z,88.05
2022-08-17T06:00:09.883Z,88.45
2022-08-17T06:01:09.292Z,88.31
2022-08-17T06:02:09.204Z,87.81
2022-08-17T06:03:09.300Z,87.51
2022-08-17T06:04:09.196Z,85.60
2022-08-17T06:05:09.200Z,85.75
2022-08-17T06:06:09.141Z,84.95
2022-08-17T06:07:09.172Z,84.85
2022-08-17T06:08:09.119Z,85.22
2022-08-17T06:09:09.100Z,84.71
2022-08-17T06:10:09.112Z,84.11
2022-08-17T06:11:09.147Z,84.47
2022-08-17T06:12:09.105Z,83.97
2022-08-17T06:13:10.114Z,84.37
2022-08-17T06:14:09.064Z,82.73
2022-08-17T06:15:09.091Z,82.43
2022-08-17T06:16:32.918Z,82.43
2022-08-17T06:17:10.005Z,82.43
2022-08-17T06:18:09.063Z,81.79
2022-08-17T06:19:08.994Z,81.88
2022-08-17T06:20:08.968Z,82.39
2022-08-17T06:21:08.967Z,82.18
2022-08-17T06:22:08.963Z,82.05
2022-08-17T06:23:08.991Z,82.35
2022-08-17T06:24:08.928Z,82.45
2022-08-17T06:25:10.363Z,81.74
2022-08-17T06:26:08.941Z,81.11
2022-08-17T06:27:08.969Z,80.80
2022-08-17T06:28:08.909Z,80.61
2022-08-17T06:29:09.856Z,80.30
2022-08-17T06:30:09.828Z,80.51
2022-08-17T06:31:08.850Z,79.97
2022-08-17T06:32:08.898Z,79.77
2022-08-17T06:33:08.858Z,79.67
2022-08-17T06:34:08.793Z,79.23
2022-08-17T06:35:08.772Z,79.59
2022-08-17T06:36:09.662Z,78.99
2022-08-17T06:37:08.847Z,77.15
2022-08-17T06:38:09.180Z,76.12
2022-08-17T06:39:09.757Z,76.52
2022-08-17T06:40:08.826Z,74.82
2022-08-17T06:41:08.798Z,74.58
2022-08-17T06:42:08.700Z,74.68
2022-08-17T06:43:10.123Z,74.85
2022-08-17T06:44:08.794Z,73.82
2022-08-17T06:45:08.653Z,72.62
2022-08-17T06:46:09.524Z,72.49
2022-08-17T06:47:08.643Z,71.59
2022-08-17T06:48:08.662Z,71.15
2022-08-17T06:49:08.617Z,70.86
2022-08-17T06:50:08.672Z,70.65
2022-08-17T06:51:08.589Z,70.56
2022-08-17T06:52:08.567Z,70.22
2022-08-17T06:53:08.556Z,70.12
2022-08-17T06:54:08.539Z,69.92
2022-08-17T06:55:08.500Z,69.69
2022-08-17T06:56:09.617Z,69.29
2022-08-17T06:57:08.480Z,69.79
2022-08-17T06:58:15.885Z,69.49
2022-08-17T06:59:10.460Z,69.49
2022-08-17T07:00:08.951Z,69.09
2022-08-17T07:01:08.555Z,68.99
2022-08-17T07:02:08.467Z,68.86
2022-08-17T07:03:08.804Z,68.86
2022-08-17T07:04:12.197Z,68.46
2022-08-17T07:05:08.440Z,68.56
2022-08-17T07:06:08.368Z,68.46
2022-08-17T07:07:08.434Z,68.66
2022-08-17T07:08:08.485Z,68.56
2022-08-17T07:09:08.739Z,68.86
2022-08-17T07:10:08.541Z,69.36
2022-08-17T07:11:09.264Z,68.66
2022-08-17T07:12:08.572Z,68.96
2022-08-17T07:13:09.775Z,68.86
2022-08-17T07:14:08.323Z,69.20
2022-08-17T07:15:08.252Z,69.39
2022-08-17T07:16:08.371Z,69.20
2022-08-17T07:17:08.205Z,69.16
2022-08-17T07:18:08.227Z,69.26
2022-08-17T07:19:10.850Z,68.96
2022-08-17T07:20:08.222Z,68.56
2022-08-17T07:21:08.225Z,68.13
2022-08-17T07:22:08.178Z,68.13
2022-08-17T07:23:08.151Z,67.83
2022-08-17T07:24:08.251Z,68.00
2022-08-17T07:25:08.129Z,67.60
2022-08-17T07:26:08.112Z,67.40
2022-08-17T07:27:08.124Z,66.88
2022-08-17T07:28:08.125Z,66.38
2022-08-17T07:29:08.160Z,66.38
2022-08-17T07:30:10.585Z,65.75
2022-08-17T07:31:08.068Z,65.45
2022-08-17T07:32:08.015Z,64.95
2022-08-17T07:33:08.119Z,65.35
2022-08-17T07:34:09.061Z,65.45
2022-08-17T07:35:08.075Z,65.55
2022-08-17T07:36:08.917Z,64.73
2022-08-17T07:37:08.127Z,64.73
2022-08-17T07:38:25.282Z,64.92
2022-08-17T07:39:08.967Z,64.20
2022-08-17T07:40:16.300Z,64.30
2022-08-17T07:41:09.119Z,64.70
2022-08-17T07:42:07.908Z,63.67
2022-08-17T07:43:08.755Z,63.37
2022-08-17T07:44:09.004Z,63.48
2022-08-17T07:45:07.953Z,63.08
2022-08-17T07:46:07.871Z,63.94
2022-08-17T07:47:07.827Z,62.55
2022-08-17T07:48:07.825Z,62.95
2022-08-17T07:49:08.705Z,62.65
2022-08-17T07:50:08.591Z,61.86
2022-08-17T07:51:09.371Z,61.76
2022-08-17T07:52:48.492Z,61.86
2022-08-17T07:53:08.785Z,61.86
2022-08-17T07:54:14.351Z,60.83
2022-08-17T07:55:08.991Z,61.13
2022-08-17T07:56:07.709Z,61.13
2022-08-17T07:57:07.717Z,59.94
2022-08-17T07:58:07.680Z,59.72
2022-08-17T07:59:07.671Z,59.72
2022-08-17T08:00:07.751Z,59.81
2022-08-17T08:01:08.741Z,59.72
2022-08-17T08:02:08.658Z,59.52
2022-08-17T08:03:08.881Z,59.39
2022-08-17T08:04:07.718Z,59.59
2022-08-17T08:05:08.845Z,59.69
2022-08-17T08:06:07.922Z,59.49
2022-08-17T08:07:07.615Z,59.89
2022-08-17T08:08:07.767Z,59.99
2022-08-17T08:09:07.605Z,59.27
2022-08-17T08:10:08.126Z,59.56
2022-08-17T08:11:07.524Z,59.17
2022-08-17T08:12:07.510Z,58.64
2022-08-17T08:13:08.814Z,57.85
2022-08-17T08:14:08.510Z,58.02
2022-08-17T08:15:08.828Z,58.32
2022-08-17T08:16:07.681Z,57.33
2022-08-17T08:17:09.484Z,57.92
2022-08-17T08:18:07.512Z,57.73
2022-08-17T08:19:07.422Z,58.72
2022-08-17T08:20:52.466Z,58.19
2022-08-17T08:21:08.397Z,57.79
2022-08-17T08:22:07.358Z,58.00
2022-08-17T08:23:07.357Z,57.89
2022-08-17T08:24:07.362Z,57.79
2022-08-17T08:25:07.349Z,57.97
2022-08-17T08:26:07.519Z,57.37
2022-08-17T08:27:07.347Z,56.78
2022-08-17T08:28:07.404Z,57.37
2022-08-17T08:29:07.274Z,56.65
2022-08-17T08:30:07.272Z,55.66
2022-08-17T08:31:07.352Z,55.35
2022-08-17T08:32:07.340Z,54.72
2022-08-17T08:33:08.054Z,54.53
2022-08-17T08:34:07.313Z,54.82
2022-08-17T08:35:08.240Z,54.53
2022-08-17T08:36:07.540Z,54.72
2022-08-17T08:37:16.479Z,55.22
2022-08-17T08:38:08.174Z,54.21
2022-08-17T08:39:07.141Z,54.30
2022-08-17T08:40:07.667Z,53.61
2022-08-17T08:41:08.311Z,53.52
2022-08-17T08:42:07.109Z,53.30
2022-08-17T08:43:07.155Z,53.30
2022-08-17T08:44:07.100Z,53.19
2022-08-17T08:45:07.089Z,51.52
2022-08-17T08:46:07.103Z,52.19
2022-08-17T08:47:08.230Z,51.62
2022-08-17T08:48:22.781Z,51.50
2022-08-17T08:49:10.021Z,51.10
2022-08-17T08:50:07.035Z,51.30
2022-08-17T08:51:08.948Z,50.19
2022-08-17T08:52:07.125Z,50.88
2022-08-17T08:53:07.058Z,49.77
2022-08-17T08:54:06.993Z,49.48
2022-08-17T08:55:07.135Z,49.46
2022-08-17T08:56:06.934Z,48.99
2022-08-17T08:57:27.809Z,49.18
2022-08-17T08:58:08.161Z,48.99
2022-08-17T08:59:07.919Z,49.08
2022-08-17T09:00:06.907Z,49.08
2022-08-17T09:01:07.091Z,49.06
2022-08-17T09:02:06.946Z,48.30
2022-08-17T09:03:06.879Z,49.58
2022-08-17T09:04:23.310Z,49.18
2022-08-17T09:05:14.426Z,49.28
2022-08-17T09:06:33.600Z,48.59
2022-08-17T09:07:07.830Z,48.89
2022-08-17T09:08:06.852Z,49.18
2022-08-17T09:09:06.792Z,49.28
2022-08-17T09:10:06.740Z,49.68
2022-08-17T09:11:06.728Z,48.99
2022-08-17T09:12:06.911Z,48.30
2022-08-17T09:13:10.249Z,48.49
2022-08-17T09:14:06.732Z,48.27
2022-08-17T09:15:12.411Z,49.16
2022-08-17T09:16:07.830Z,48.05
2022-08-17T09:17:07.155Z,47.36
2022-08-17T09:19:01.293Z,47.34
2022-08-17T09:19:07.870Z,46.53
2022-08-17T09:20:06.674Z,46.34
2022-08-17T09:21:06.763Z,46.53
2022-08-17T09:22:06.630Z,45.85
2022-08-17T09:23:06.596Z,46.75
2022-08-17T09:24:06.577Z,46.85
2022-08-17T09:25:06.644Z,47.96
2022-08-17T09:26:06.552Z,47.47
2022-08-17T09:27:06.562Z,47.47
2022-08-17T09:28:07.384Z,46.88
2022-08-17T09:29:06.679Z,47.15
2022-08-17T09:30:06.498Z,45.28
2022-08-17T09:31:06.732Z,45.77
2022-08-17T09:32:06.510Z,45.09
2022-08-17T09:33:06.478Z,45.28
2022-08-17T09:34:06.448Z,45.57
2022-08-17T09:35:06.456Z,45.18
2022-08-17T09:36:06.533Z,44.79
2022-08-17T09:37:06.571Z,44.79
2022-08-17T09:38:06.635Z,44.79
2022-08-17T09:39:06.387Z,44.98
2022-08-17T09:40:06.412Z,44.89
2022-08-17T09:41:06.438Z,45.30
2022-08-17T09:42:06.379Z,45.18
2022-08-17T09:43:06.632Z,45.38
2022-08-17T09:44:22.555Z,45.18
2022-08-17T09:45:07.335Z,45.26
2022-08-17T09:46:06.317Z,45.65
2022-08-17T09:47:06.345Z,44.55
2022-08-17T09:48:07.501Z,43.05
2022-08-17T09:49:06.284Z,43.35
2022-08-17T09:50:06.296Z,43.15
2022-08-17T09:51:06.714Z,41.98
2022-08-17T09:52:06.209Z,42.00
2022-08-17T09:53:06.678Z,42.39
2022-08-17T09:54:36.970Z,42.76
2022-08-17T09:55:07.690Z,42.08
2022-08-17T09:56:07.241Z,42.37
2022-08-17T09:57:28.665Z,42.35
2022-08-17T09:58:07.300Z,42.55
2022-08-17T09:59:06.204Z,42.62
2022-08-17T10:00:06.100Z,42.15
2022-08-17T10:01:06.177Z,42.27
2022-08-17T10:02:06.162Z,42.96
2022-08-17T10:03:06.081Z,42.65
2022-08-17T10:04:06.177Z,42.15
2022-08-17T10:05:06.042Z,42.52
2022-08-17T10:06:06.366Z,41.94
2022-08-17T10:07:06.607Z,42.65
2022-08-17T10:08:06.108Z,42.65
2022-08-17T10:09:07.026Z,43.12
2022-08-17T10:10:08.667Z,42.55
2022-08-17T10:11:07.856Z,42.25
2022-08-17T10:12:06.136Z,42.96
2022-08-17T10:13:06.055Z,43.35
2022-08-17T10:14:31.865Z,43.27
2022-08-17T10:15:08.181Z,43.76
2022-08-17T10:16:06.142Z,44.26
2022-08-17T10:17:06.025Z,43.66
2022-08-17T10:18:06.673Z,43.37
2022-08-17T10:19:05.861Z,43.08
2022-08-17T10:20:05.980Z,43.37
2022-08-17T10:21:05.822Z,42.76
2022-08-17T10:22:32.345Z,42.65
2022-08-17T10:23:06.833Z,42.96
2022-08-17T10:24:05.822Z,42.66
2022-08-17T10:25:22.810Z,43.08
2022-08-17T10:26:06.789Z,43.76
2022-08-17T10:27:05.765Z,43.15
2022-08-17T10:28:06.740Z,43.05
2022-08-17T10:29:05.761Z,41.86
2022-08-17T10:30:05.783Z,40.39
2022-08-17T10:31:33.230Z,39.51
2022-08-17T10:32:06.688Z,39.29
2022-08-17T10:33:05.852Z,39.69
2022-08-17T10:34:05.852Z,39.96
2022-08-17T10:35:06.574Z,39.96
2022-08-17T10:36:10.537Z,40.45
2022-08-17T10:37:06.669Z,41.25
2022-08-17T10:38:05.628Z,41.37
2022-08-17T10:39:05.604Z,41.37
2022-08-17T10:40:05.672Z,40.56
2022-08-17T10:41:06.516Z,40.47
2022-08-17T10:42:05.628Z,40.76
2022-08-17T10:43:07.029Z,39.98
2022-08-17T10:44:38.799Z,40.08
2022-08-17T10:45:06.567Z,40.06
2022-08-17T10:46:10.634Z,39.76
2022-08-17T10:47:06.767Z,40.06
2022-08-17T10:48:07.443Z,39.88
2022-08-17T10:49:05.654Z,40.37
2022-08-17T10:50:05.476Z,40.86
2022-08-17T10:51:05.468Z,40.95
2022-08-17T10:52:05.484Z,39.78
2022-08-17T10:53:05.432Z,39.56
2022-08-17T10:54:05.436Z,39.37
2022-08-17T10:55:05.409Z,38.86
2022-08-17T10:56:05.429Z,38.67
2022-08-17T10:57:05.378Z,39.35
2022-08-17T10:58:06.424Z,39.37
2022-08-17T10:59:05.479Z,40.45
2022-08-17T11:00:05.572Z,39.76
2022-08-17T11:01:05.955Z,40.14
2022-08-17T11:02:05.329Z,39.84
2022-08-17T11:03:05.326Z,40.23
2022-08-17T11:04:05.290Z,40.11
2022-08-17T11:05:05.942Z,39.45
2022-08-17T11:06:05.323Z,39.35
2022-08-17T11:07:05.260Z,39.76
2022-08-17T11:08:05.921Z,39.27
2022-08-17T11:09:05.954Z,39.47
2022-08-17T11:10:05.216Z,40.06
2022-08-17T11:11:05.304Z,39.98
2022-08-17T11:12:05.224Z,40.35
2022-08-17T11:13:06.003Z,38.90
2022-08-17T11:14:05.301Z,39.88
2022-08-17T11:15:05.331Z,39.78
2022-08-17T11:16:08.362Z,39.29
2022-08-17T11:17:05.112Z,39.98
2022-08-17T11:18:05.196Z,39.29
2022-08-17T11:19:05.144Z,39.49
2022-08-17T11:20:05.136Z,39.17
2022-08-17T11:21:05.117Z,39.17
2022-08-17T11:22:05.058Z,38.10
2022-08-17T11:23:05.148Z,38.18
2022-08-17T11:24:05.047Z,39.45
2022-08-17T11:25:05.866Z,37.88
2022-08-17T11:26:05.782Z,38.37
2022-08-17T11:27:05.159Z,38.47
2022-08-17T11:28:05.624Z,38.06
2022-08-17T11:29:04.981Z,37.57
2022-08-17T11:30:05.145Z,37.47
2022-08-17T11:31:04.941Z,37.77
2022-08-17T11:32:04.962Z,37.96
2022-08-17T11:33:04.922Z,38.35
2022-08-17T11:34:05.101Z,39.74
2022-08-17T11:35:04.915Z,39.06
2022-08-17T11:36:04.975Z,38.98
2022-08-17T11:37:04.969Z,38.78
2022-08-17T11:38:08.682Z,37.90
2022-08-17T11:39:07.082Z,38.10
2022-08-17T11:40:04.886Z,38.39
2022-08-17T11:41:04.878Z,38.18
2022-08-17T11:42:04.819Z,37.98
2022-08-17T11:43:04.817Z,37.90
2022-08-17T11:44:04.776Z,38.39
2022-08-17T11:45:04.789Z,38.49
2022-08-17T11:46:04.751Z,38.60
2022-08-17T11:47:04.753Z,38.62
2022-08-17T11:49:05.734Z,38.72
2022-08-17T11:50:04.731Z,39.11
2022-08-17T11:51:05.941Z,39.22
2022-08-17T11:52:04.703Z,37.94
2022-08-17T11:53:05.016Z,38.13
2022-08-17T11:54:31.091Z,38.43
2022-08-17T11:55:31.916Z,37.94
2022-08-17T11:56:05.657Z,37.65
2022-08-17T11:57:04.659Z,37.65
2022-08-17T11:58:05.773Z,38.31
2022-08-17T11:59:04.700Z,37.92
2022-08-17T12:00:05.586Z,37.52
2022-08-17T12:01:05.995Z,38.31
2022-08-17T12:02:04.698Z,38.90
2022-08-17T12:03:04.678Z,38.47
2022-08-17T12:04:05.738Z,37.37
2022-08-17T12:05:04.497Z,36.77
2022-08-17T12:06:05.494Z,37.04
2022-08-17T12:07:04.528Z,36.93
2022-08-17T12:08:04.566Z,35.64
2022-08-17T12:09:04.493Z,35.56
2022-08-17T12:10:04.868Z,35.17
2022-08-17T12:11:04.820Z,35.07
2022-08-17T12:12:13.717Z,34.99
2022-08-17T12:13:05.496Z,35.60
2022-08-17T12:14:04.419Z,36.16
2022-08-17T12:15:12.310Z,35.19
2022-08-17T12:16:06.604Z,34.89
2022-08-17T12:17:05.405Z,34.68
2022-08-17T12:18:05.389Z,34.68
2022-08-17T12:19:04.337Z,34.57
2022-08-17T12:20:05.088Z,34.45
2022-08-17T12:21:04.319Z,34.28
2022-08-17T12:22:04.302Z,34.96
2022-08-17T12:23:04.456Z,34.88
2022-08-17T12:24:04.317Z,35.77
2022-08-17T12:25:04.281Z,35.75
2022-08-17T12:26:04.335Z,35.46
2022-08-17T12:27:05.075Z,35.36
2022-08-17T12:28:07.414Z,35.27
2022-08-17T12:29:04.218Z,34.78
2022-08-17T12:30:04.220Z,34.97
2022-08-17T12:31:04.177Z,35.36
2022-08-17T12:32:04.313Z,34.86
2022-08-17T12:33:04.179Z,34.67
2022-08-17T12:34:05.388Z,35.16
2022-08-17T12:35:04.155Z,34.96
2022-08-17T12:36:04.157Z,34.29
2022-08-17T12:37:04.106Z,34.68
2022-08-17T12:38:04.105Z,34.09
2022-08-17T12:39:14.441Z,34.48
2022-08-17T12:40:05.168Z,34.88
2022-08-17T12:41:04.053Z,35.36
2022-08-17T12:42:05.006Z,35.75
2022-08-17T12:43:04.095Z,35.77
2022-08-17T12:44:04.946Z,35.68
2022-08-17T12:45:04.956Z,35.60
2022-08-17T12:46:13.172Z,36.18
2022-08-17T12:47:04.974Z,36.38
2022-08-17T12:48:03.976Z,36.57
2022-08-17T12:49:04.153Z,36.16
2022-08-17T12:50:04.929Z,36.36
2022-08-17T12:51:03.935Z,36.46
2022-08-17T12:52:04.038Z,35.48
2022-08-17T12:53:04.146Z,35.77